Aérodrome de Castelnaudary-Villeneuve

LFMW · Occitanie, Frankrijk

6 oktober 2022

Tijd Code Weer Temp. Zicht Plafond Wind METAR/SPECI
09:00
V
16 °C 10 km+ 3.200 ft Var 000° 0 kt METAR LFBA 060700Z AUTO 00000KT 9999 OVC032 16/15 Q1029 NOSIG
08:30
V
16 °C 10 km+ 3.300 ft 320° 320° 1 kt METAR LFBA 060630Z AUTO 32001KT 9999 OVC033 16/15 Q1029 NOSIG
08:00
M
16 °C 6 km 3.300 ft 300° 300° 2 kt METAR LFBA 060600Z AUTO 30002KT 6000 OVC033 16/15 Q1029 NOSIG
07:30
V
16 °C 10 km+ 3.300 ft 320° 320° 2 kt METAR LFBA 060530Z AUTO 32002KT 9999 OVC033 16/14 Q1029
07:00
V
16 °C 10 km+ 3.200 ft 340° 340° 2 kt METAR LFBA 060500Z AUTO 34002KT 9999 OVC032 16/14 Q1029
06:30
V
15 °C 10 km+ 3.200 ft 300° 300° 3 kt METAR LFBA 060430Z AUTO 30003KT 9999 OVC032 15/14 Q1029
06:00
V
16 °C 10 km+ 3.000 ft 290° 290° 3 kt METAR LFBA 060400Z AUTO 29003KT 9999 OVC030 16/14 Q1029
05:30
M
16 °C 10 km+ 2.800 ft 290° 290° 3 kt METAR LFBA 060330Z AUTO 29003KT 9999 OVC028 16/14 Q1028
05:00
M
16 °C 10 km+ 2.700 ft 300° 300° 4 kt METAR LFBA 060300Z AUTO 30004KT 9999 OVC027 16/14 Q1028
04:30
M
16 °C 10 km+ 1.900 ft 310° 310° 5 kt METAR LFBA 060230Z AUTO 31005KT 9999 BKN019 OVC027 16/15 Q1029
04:00
M
17 °C 10 km+ 1.600 ft 290° 290° 5 kt METAR LFBA 060200Z AUTO 29005KT 9999 OVC016 17/15 Q1029
03:30
M
17 °C 10 km+ 1.400 ft 280° 280° 6 kt METAR LFBA 060130Z AUTO 28006KT 9999 BKN014 BKN033 17/14 Q1029
03:00
M
17 °C 10 km+ 2.900 ft 280° 280° 6 kt METAR LFBA 060100Z AUTO 28006KT 9999 FEW014 OVC029 17/15 Q1029
02:30
M
17 °C 10 km+ 2.500 ft 280° 280° 8 kt METAR LFBA 060030Z AUTO 28008KT 9999 SCT015 OVC025 17/15 Q1029
02:00
M
17 °C 10 km+ 2.500 ft 290° 290° 7 kt METAR LFBA 060000Z AUTO 29007KT 9999 OVC025 17/15 Q1028
01:30
M
17 °C 10 km+ 2.600 ft 280° 280° 7 kt METAR LFBA 052330Z AUTO 28007KT 9999 SCT017 OVC026 17/15 Q1028
01:00
M
18 °C 10 km+ 1.600 ft 290° 290° 9 kt METAR LFBA 052300Z AUTO 29009KT 9999 BKN016 18/15 Q1028
00:30
M
18 °C 10 km+ 1.600 ft 280° 280° 8 kt METAR LFBA 052230Z AUTO 28008KT 9999 BKN016 18/15 Q1028
00:00
M
18 °C 10 km+ 1.700 ft 280° 280° 7 kt METAR LFBA 052200Z AUTO 28007KT 250V310 9999 BKN017 18/15 Q1027

5 oktober 2022

Tijd Code Weer Temp. Zicht Plafond Wind METAR/SPECI
23:30
V
18 °C 10 km+ - 290° 290° 9 kt METAR LFBA 052130Z AUTO 29009KT CAVOK 18/15 Q1027
23:00
V
19 °C 10 km+ - 300° 300° 9 kt METAR LFBA 052100Z AUTO 30009KT CAVOK 19/15 Q1027 BECMG BKN012
22:30
V
20 °C 10 km+ - 280° 280° 8 kt METAR LFBA 052030Z AUTO 28008KT CAVOK 20/14 Q1026 BECMG BKN012
22:00
V
21 °C 10 km+ - 260° 260° 7 kt METAR LFBA 052000Z AUTO 26007KT 220V300 CAVOK 21/13 Q1025 BECMG BKN012
21:30
V
20 °C 10 km+ - 220° 220° 5 kt METAR LFBA 051930Z AUTO 22005KT 140V300 CAVOK 20/15 Q1025 BECMG BKN012
21:00
V
19 °C 10 km+ - Var Var 3 kt METAR LFBA 051900Z AUTO VRB03KT CAVOK 19/14 Q1024 NOSIG
20:30
V
19 °C 10 km+ - 120° 120° 5 kt METAR LFBA 051830Z AUTO 12005KT CAVOK 19/14 Q1023 BECMG 27010KT
20:00
V
20 °C 10 km+ - 120° 120° 5 kt METAR LFBA 051800Z AUTO 12005KT CAVOK 20/14 Q1023 BECMG 27010KT
19:30
V
22 °C 10 km+ - 120° 120° 6 kt METAR LFBA 051730Z AUTO 12006KT CAVOK 22/14 Q1022 BECMG 27010KT
19:00
V
24 °C 10 km+ - 120° 120° 6 kt METAR LFBA 051700Z AUTO 12006KT CAVOK 24/14 Q1022 NOSIG
18:30
V
25 °C 10 km+ - 100° 100° 6 kt METAR LFBA 051630Z AUTO 10006KT CAVOK 25/15 Q1022 NOSIG
18:00
V
26 °C 10 km+ - 110° 110° 6 kt METAR LFBA 051600Z AUTO 11006KT CAVOK 26/14 Q1021 NOSIG
17:30
V
27 °C 10 km+ - 120° 120° 6 kt METAR LFBA 051530Z AUTO 12006KT CAVOK 27/14 Q1021 NOSIG
17:00
V
27 °C 10 km+ - 130° 130° 6 kt METAR LFBA 051500Z AUTO 13006KT 100V170 CAVOK 27/12 Q1021 NOSIG
16:30
V
27 °C 10 km+ - 110° 110° 8 kt METAR LFBA 051430Z AUTO 11008KT 080V140 CAVOK 27/13 Q1021 NOSIG
16:00
V
27 °C 10 km+ - 130° 130° 7 kt METAR LFBA 051400Z AUTO 13007KT 090V160 CAVOK 27/14 Q1021 NOSIG
15:30
V
27 °C 10 km+ - 130° 130° 9 kt METAR LFBA 051330Z AUTO 13009KT 090V160 CAVOK 27/14 Q1021 NOSIG
15:00
V
27 °C 10 km+ - 130° 130° 8 kt METAR LFBA 051300Z AUTO 13008KT 100V190 CAVOK 27/14 Q1021 NOSIG
14:30
V
27 °C 10 km+ - 110° 110° 8 kt METAR LFBA 051230Z AUTO 11008KT 080V170 CAVOK 27/15 Q1021 NOSIG
14:00
V
26 °C 10 km+ - 110° 110° 10 kt METAR LFBA 051200Z AUTO 11010KT 090V160 CAVOK 26/16 Q1022 NOSIG
13:30
V
25 °C 10 km+ - 130° 130° 9 kt METAR LFBA 051130Z AUTO 13009KT 080V170 CAVOK 25/15 Q1022 NOSIG
13:00
V
24 °C 10 km+ - 120° 120° 8 kt METAR LFBA 051100Z AUTO 12008KT 080V170 CAVOK 24/16 Q1022 NOSIG
12:30
V
23 °C 10 km+ - 110° 110° 8 kt METAR LFBA 051030Z AUTO 11008KT 080V140 CAVOK 23/16 Q1022 NOSIG
12:00
V
21 °C 10 km+ - 100° 100° 8 kt METAR LFBA 051000Z AUTO 10008KT CAVOK 21/16 Q1022 NOSIG
11:30
V
19 °C 10 km+ - 090° 090° 9 kt METAR LFBA 050930Z AUTO 09009KT CAVOK 19/14 Q1022 NOSIG
11:00
V
17 °C 10 km+ - 110° 110° 8 kt METAR LFBA 050900Z AUTO 11008KT CAVOK 17/14 Q1022 NOSIG
10:30
V
16 °C 10 km+ - 110° 110° 8 kt METAR LFBA 050830Z AUTO 11008KT CAVOK 16/13 Q1022 NOSIG
10:00
V
15 °C 10 km+ - 120° 120° 8 kt METAR LFBA 050800Z AUTO 12008KT CAVOK 15/13 Q1022 NOSIG
09:30
V
14 °C 10 km+ - 110° 110° 8 kt METAR LFBA 050730Z AUTO 11008KT CAVOK 14/12 Q1022 NOSIG
09:00
V
13 °C 10 km+ - 120° 120° 5 kt METAR LFBA 050700Z AUTO 12005KT CAVOK 13/12 Q1022 NOSIG
08:30
V
12 °C 10 km+ - 110° 110° 6 kt METAR LFBA 050630Z AUTO 11006KT CAVOK 12/11 Q1021 NOSIG
08:00
V
11 °C 10 km+ - 110° 110° 7 kt METAR LFBA 050600Z AUTO 11007KT CAVOK 11/11 Q1021 NOSIG
07:30
V
12 °C 10 km+ - 110° 110° 9 kt METAR LFBA 050530Z AUTO 11009KT CAVOK 12/11 Q1021
07:00
V
12 °C 10 km+ - 120° 120° 8 kt METAR LFBA 050500Z AUTO 12008KT CAVOK 12/11 Q1021
06:30
V
11 °C 10 km+ - 110° 110° 6 kt METAR LFBA 050430Z AUTO 11006KT CAVOK 11/11 Q1021
06:00
V
11 °C 10 km+ - 110° 110° 7 kt METAR LFBA 050400Z AUTO 11007KT CAVOK 11/11 Q1021
05:30
V
11 °C 10 km+ - 110° 110° 6 kt METAR LFBA 050330Z AUTO 11006KT CAVOK 11/10 Q1021
05:00
V
12 °C 10 km+ - 120° 120° 5 kt METAR LFBA 050300Z AUTO 12005KT CAVOK 12/11 Q1021
04:30
V
12 °C 10 km+ - 110° 110° 6 kt METAR LFBA 050230Z AUTO 11006KT CAVOK 12/11 Q1021
04:00
V
12 °C 10 km+ - 120° 120° 7 kt METAR LFBA 050200Z AUTO 12007KT CAVOK 12/11 Q1021
03:30
V
11 °C 10 km+ - 110° 110° 6 kt METAR LFBA 050130Z AUTO 11006KT CAVOK 11/11 Q1021
03:00
V
11 °C 10 km+ - 110° 110° 5 kt METAR LFBA 050100Z AUTO 11005KT CAVOK 11/10 Q1021
02:30
V
11 °C 10 km+ - 100° 100° 5 kt METAR LFBA 050030Z AUTO 10005KT CAVOK 11/10 Q1021
02:00
V
11 °C 10 km+ - 120° 120° 6 kt METAR LFBA 050000Z AUTO 12006KT CAVOK 11/11 Q1022
01:30
V
12 °C 10 km+ - 110° 110° 5 kt METAR LFBA 042330Z AUTO 11005KT CAVOK 12/11 Q1022
00:30
V
12 °C 10 km+ - 110° 110° 5 kt METAR LFBA 042230Z AUTO 11005KT CAVOK 12/10 Q1022
00:00
V
12 °C 10 km+ - 120° 120° 4 kt METAR LFBA 042200Z AUTO 12004KT CAVOK 12/10 Q1022

4 oktober 2022

Tijd Code Weer Temp. Zicht Plafond Wind METAR/SPECI
23:30
V
13 °C 10 km+ - 120° 120° 2 kt METAR LFBA 042130Z AUTO 12002KT CAVOK 13/11 Q1022
23:00
V
13 °C 10 km+ - Var Var 2 kt METAR LFBA 042100Z AUTO VRB02KT CAVOK 13/11 Q1022
22:30
V
14 °C 10 km+ - Var Var 1 kt METAR LFBA 042030Z AUTO VRB01KT CAVOK 14/12 Q1022
22:00
V
15 °C 10 km+ - Var 000° 0 kt METAR LFBA 042000Z AUTO 00000KT CAVOK 15/12 Q1022 NOSIG
21:30
V
15 °C 10 km+ - Var 000° 0 kt METAR LFBA 041930Z AUTO 00000KT CAVOK 15/12 Q1022 NOSIG
21:00
V
16 °C 10 km+ - Var Var 1 kt METAR LFBA 041900Z AUTO VRB01KT CAVOK 16/12 Q1021 NOSIG
20:30
V
17 °C 10 km+ - 200° 200° 3 kt METAR LFBA 041830Z AUTO 20003KT CAVOK 17/12 Q1021 NOSIG
20:00
M
20 °C 6 km - 220° 220° 2 kt METAR LFBA 041800Z AUTO 22002KT 6000 NSC 20/11 Q1021 NOSIG
19:30
V
23 °C 10 km+ - 030° 030° 2 kt METAR LFBA 041730Z AUTO 03002KT CAVOK 23/12 Q1021 NOSIG
19:00
V
25 °C 10 km+ - Var Var 1 kt METAR LFBA 041700Z AUTO VRB01KT CAVOK 25/11 Q1020 NOSIG
18:30
V
26 °C 10 km+ - Var Var 1 kt METAR LFBA 041630Z AUTO VRB01KT CAVOK 26/12 Q1020 NOSIG
18:00
V
26 °C 10 km+ - Var Var 2 kt METAR LFBA 041600Z AUTO VRB02KT CAVOK 26/11 Q1020 NOSIG
17:30
V
26 °C 10 km+ - Var Var 3 kt METAR LFBA 041530Z AUTO VRB03KT CAVOK 26/12 Q1020 NOSIG
17:00
V
26 °C 10 km+ - Var Var 2 kt METAR LFBA 041500Z AUTO VRB02KT CAVOK 26/12 Q1020 NOSIG
16:30
V
26 °C 10 km+ - 010° 010° 4 kt METAR LFBA 041430Z AUTO 01004KT 320V070 CAVOK 26/12 Q1020 NOSIG
16:00
V
25 °C 10 km+ - 320° 320° 3 kt METAR LFBA 041400Z AUTO 32003KT 230V040 CAVOK 25/12 Q1020 NOSIG
15:30
V
25 °C 10 km+ - 040° 040° 3 kt METAR LFBA 041330Z AUTO 04003KT 350V100 CAVOK 25/12 Q1021 NOSIG
15:00
V
25 °C 10 km+ - Var Var 3 kt METAR LFBA 041300Z AUTO VRB03KT CAVOK 25/13 Q1021 NOSIG
14:30
V
25 °C 10 km+ - Var Var 2 kt METAR LFBA 041230Z AUTO VRB02KT CAVOK 25/13 Q1021 NOSIG
14:00
V
24 °C 10 km+ - Var Var 2 kt METAR LFBA 041200Z AUTO VRB02KT CAVOK 24/13 Q1021 NOSIG
13:30
V
23 °C 10 km+ - Var Var 3 kt METAR LFBA 041130Z AUTO VRB03KT CAVOK 23/13 Q1021 NOSIG
13:00
V
23 °C 10 km+ - Var Var 2 kt METAR LFBA 041100Z AUTO VRB02KT CAVOK 23/12 Q1022 NOSIG
12:30
V
21 °C 10 km+ - Var Var 2 kt METAR LFBA 041030Z AUTO VRB02KT CAVOK 21/14 Q1022 NOSIG
12:00
V
20 °C 10 km+ - Var Var 1 kt METAR LFBA 041000Z AUTO VRB01KT CAVOK 20/15 Q1022 NOSIG
11:30
V
17 °C 10 km+ - Var Var 1 kt METAR LFBA 040930Z AUTO VRB01KT CAVOK 17/14 Q1022 NOSIG
11:00
V
15 °C 10 km+ - Var Var 2 kt METAR LFBA 040900Z AUTO VRB02KT CAVOK 15/14 Q1022 NOSIG
10:30
V
14 °C 10 km+ - 110° 110° 3 kt METAR LFBA 040830Z AUTO 11003KT 9999 SCT001 14/14 Q1022 NOSIG
10:00
L
12 °C 10 km+ 200 ft 100° 100° 4 kt METAR LFBA 040800Z AUTO 10004KT 060V130 9999 BKN002 12/12 Q1022 BECMG NSC
09:30
L
11 °C 550 m - 090° 090° 4 kt METAR LFBA 040730Z AUTO 09004KT 0550 R29/1100U FG VV/// 11/11 Q1021 BECMG CAVOK
09:00
L
11 °C 250 m - 110° 110° 3 kt METAR LFBA 040700Z AUTO 11003KT 0300 0250 R29/0300N FG VV/// 11/11 Q1021 BECMG CAVOK
08:30
L
10 °C 350 m - 110° 110° 4 kt METAR LFBA 040630Z AUTO 11004KT 0400 0350 R29/0400N FG VV/// 10/10 Q1021 BECMG CAVOK
08:00
L
9 °C 500 m - 110° 110° 3 kt METAR LFBA 040600Z AUTO 11003KT 0550 0500 R29/0450D FG VV/// 09/09 Q1021 TEMPO 2000 BR BECMG NSC
07:30
L
9 °C 650 m - 090° 090° 3 kt METAR LFBA 040530Z AUTO 09003KT 0650 R29/0600D FG VV/// 09/08 Q1021 TEMPO 2000 BR BECMG NSC
07:00
L
9 °C 1,2 km - 100° 100° 4 kt METAR LFBA 040500Z AUTO 10004KT 9999 1200 R29/1100D SCT001 09/09 Q1020
Oudere gegevens

Met cookies volgen wij en derde partijen jouw internetgedrag binnen onze site. Als je verdergaat gaan we ervan uit dat je dit goedvindt. Meer info